Washington, Missouri
Current Conditions -  °F | °C
As of 12:35 PM on Thursday 30 Oct 2014 (Local Time) from KFYG Reporting Station
Few Clouds Few Clouds  
Wind Chill: 55°   Ceiling: Unl
Heat Index: 55°   Visibility: 10mi
Dew Point: 39°   Wind: 7mph
Humidity: 54%   Direction: 150°SSE
Pressure: 30.07"   Gusts: NA
Location:  38.55°N, 91°W
Report Text: KFYG 301735Z AUTO 15006KT 10SM FEW120 13/04 A3007 RMK AO2
Loading
Personal Weather Stations






























Interactive Weather Map New forecast layout! Learn more

10-Day Weather Forecast

Advertisements
Track Severe Weather on mobile